sensor_id;sensor_type;location;lat;lon;timestamp;P1;durP1;ratioP1;P2;durP2;ratioP2
54247;SDS011;40161;39.768;2.722;2022-12-18T00:01:13;22.73;;;14.55;;
54247;SDS011;40161;39.768;2.722;2022-12-18T00:03:42;44.70;;;17.90;;
54247;SDS011;40161;39.768;2.722;2022-12-18T00:06:07;27.40;;;14.10;;
54247;SDS011;40161;39.768;2.722;2022-12-18T00:08:34;37.88;;;20.08;;
54247;SDS011;40161;39.768;2.722;2022-12-18T00:11:03;44.05;;;23.52;;
54247;SDS011;40161;39.768;2.722;2022-12-18T00:13:30;31.95;;;18.65;;
54247;SDS011;40161;39.768;2.722;2022-12-18T00:16:00;22.58;;;13.90;;
54247;SDS011;40161;39.768;2.722;2022-12-18T00:18:31;14.98;;;10.18;;
54247;SDS011;40161;39.768;2.722;2022-12-18T00:21:00;17.80;;;11.85;;
54247;SDS011;40161;39.768;2.722;2022-12-18T00:23:26;17.67;;;12.13;;
54247;SDS011;40161;39.768;2.722;2022-12-18T00:25:53;13.38;;;8.75;;
54247;SDS011;40161;39.768;2.722;2022-12-18T00:28:18;10.52;;;6.88;;
54247;SDS011;40161;39.768;2.722;2022-12-18T00:30:44;10.40;;;6.40;;
54247;SDS011;40161;39.768;2.722;2022-12-18T00:33:09;9.52;;;5.60;;
54247;SDS011;40161;39.768;2.722;2022-12-18T00:35:35;7.00;;;4.10;;
54247;SDS011;40161;39.768;2.722;2022-12-18T00:38:00;6.82;;;3.55;;
54247;SDS011;40161;39.768;2.722;2022-12-18T00:40:26;7.07;;;3.80;;
54247;SDS011;40161;39.768;2.722;2022-12-18T00:42:52;9.88;;;5.22;;
54247;SDS011;40161;39.768;2.722;2022-12-18T00:45:20;9.65;;;5.85;;
54247;SDS011;40161;39.768;2.722;2022-12-18T00:47:46;12.60;;;7.93;;
54247;SDS011;40161;39.768;2.722;2022-12-18T00:50:12;13.57;;;8.35;;
54247;SDS011;40161;39.768;2.722;2022-12-18T00:52:37;18.98;;;10.85;;
54247;SDS011;40161;39.768;2.722;2022-12-18T00:55:03;13.90;;;8.18;;
54247;SDS011;40161;39.768;2.722;2022-12-18T00:57:29;9.10;;;5.82;;
54247;SDS011;40161;39.768;2.722;2022-12-18T00:59:54;8.73;;;4.70;;
54247;SDS011;40161;39.768;2.722;2022-12-18T01:02:20;9.68;;;4.47;;
54247;SDS011;40161;39.768;2.722;2022-12-18T01:04:45;7.50;;;3.88;;
54247;SDS011;40161;39.768;2.722;2022-12-18T01:07:11;8.93;;;3.90;;
54247;SDS011;40161;39.768;2.722;2022-12-18T01:09:36;8.45;;;4.35;;
54247;SDS011;40161;39.768;2.722;2022-12-18T01:12:02;7.60;;;3.60;;
54247;SDS011;40161;39.768;2.722;2022-12-18T01:14:27;7.22;;;3.65;;
54247;SDS011;40161;39.768;2.722;2022-12-18T01:16:53;7.35;;;3.50;;
54247;SDS011;40161;39.768;2.722;2022-12-18T01:19:18;6.68;;;3.20;;
54247;SDS011;40161;39.768;2.722;2022-12-18T01:21:44;7.68;;;3.20;;
54247;SDS011;40161;39.768;2.722;2022-12-18T01:24:09;6.72;;;3.08;;
54247;SDS011;40161;39.768;2.722;2022-12-18T01:26:37;7.88;;;5.03;;
54247;SDS011;40161;39.768;2.722;2022-12-18T01:29:02;8.75;;;4.70;;
54247;SDS011;40161;39.768;2.722;2022-12-18T01:31:29;11.52;;;5.82;;
54247;SDS011;40161;39.768;2.722;2022-12-18T01:33:57;9.20;;;5.32;;
54247;SDS011;40161;39.768;2.722;2022-12-18T01:36:26;12.27;;;6.07;;
54247;SDS011;40161;39.768;2.722;2022-12-18T01:38:54;11.88;;;5.95;;
54247;SDS011;40161;39.768;2.722;2022-12-18T01:41:25;9.38;;;5.20;;
54247;SDS011;40161;39.768;2.722;2022-12-18T01:47:22;8.85;;;4.45;;
54247;SDS011;40161;39.768;2.722;2022-12-18T01:49:51;14.80;;;8.00;;
54247;SDS011;40161;39.768;2.722;2022-12-18T01:52:18;18.20;;;10.73;;
54247;SDS011;40161;39.768;2.722;2022-12-18T01:54:45;18.65;;;10.32;;
54247;SDS011;40161;39.768;2.722;2022-12-18T01:57:13;19.58;;;9.63;;
54247;SDS011;40161;39.768;2.722;2022-12-18T01:59:38;11.90;;;6.75;;
54247;SDS011;40161;39.768;2.722;2022-12-18T02:02:07;10.80;;;6.15;;
54247;SDS011;40161;39.768;2.722;2022-12-18T02:04:33;10.88;;;6.00;;
54247;SDS011;40161;39.768;2.722;2022-12-18T02:09:57;8.75;;;5.20;;
54247;SDS011;40161;39.768;2.722;2022-12-18T02:12:42;12.43;;;5.93;;
54247;SDS011;40161;39.768;2.722;2022-12-18T02:18:30;19.45;;;10.82;;
54247;SDS011;40161;39.768;2.722;2022-12-18T02:23:56;16.00;;;7.68;;
54247;SDS011;40161;39.768;2.722;2022-12-18T02:28:53;16.98;;;9.60;;
54247;SDS011;40161;39.768;2.722;2022-12-18T02:31:25;21.85;;;13.10;;
54247;SDS011;40161;39.768;2.722;2022-12-18T02:33:56;29.95;;;19.83;;
54247;SDS011;40161;39.768;2.722;2022-12-18T02:36:25;22.17;;;14.50;;
54247;SDS011;40161;39.768;2.722;2022-12-18T02:38:53;17.83;;;10.80;;
54247;SDS011;40161;39.768;2.722;2022-12-18T02:41:21;11.15;;;7.72;;
54247;SDS011;40161;39.768;2.722;2022-12-18T02:43:49;10.80;;;6.53;;
54247;SDS011;40161;39.768;2.722;2022-12-18T02:46:29;10.40;;;5.90;;
54247;SDS011;40161;39.768;2.722;2022-12-18T02:54:48;8.32;;;4.40;;
54247;SDS011;40161;39.768;2.722;2022-12-18T02:57:24;7.88;;;4.72;;
54247;SDS011;40161;39.768;2.722;2022-12-18T02:59:59;9.88;;;5.10;;
54247;SDS011;40161;39.768;2.722;2022-12-18T03:02:32;10.63;;;5.03;;
54247;SDS011;40161;39.768;2.722;2022-12-18T03:07:47;8.07;;;3.90;;
54247;SDS011;40161;39.768;2.722;2022-12-18T03:10:20;8.10;;;3.50;;
54247;SDS011;40161;39.768;2.722;2022-12-18T03:12:52;7.03;;;3.40;;
54247;SDS011;40161;39.768;2.722;2022-12-18T03:15:31;6.65;;;3.42;;
54247;SDS011;40161;39.768;2.722;2022-12-18T03:18:10;10.80;;;4.43;;
54247;SDS011;40161;39.768;2.722;2022-12-18T03:20:42;6.53;;;3.97;;
54247;SDS011;40161;39.768;2.722;2022-12-18T03:23:12;8.63;;;4.50;;
54247;SDS011;40161;39.768;2.722;2022-12-18T03:25:43;8.70;;;4.55;;
54247;SDS011;40161;39.768;2.722;2022-12-18T03:28:12;8.23;;;3.80;;
54247;SDS011;40161;39.768;2.722;2022-12-18T03:30:40;8.57;;;4.10;;
54247;SDS011;40161;39.768;2.722;2022-12-18T03:33:14;6.95;;;3.85;;
54247;SDS011;40161;39.768;2.722;2022-12-18T03:35:45;9.77;;;3.65;;
54247;SDS011;40161;39.768;2.722;2022-12-18T03:38:11;7.30;;;3.50;;
54247;SDS011;40161;39.768;2.722;2022-12-18T03:43:10;7.03;;;3.70;;
54247;SDS011;40161;39.768;2.722;2022-12-18T03:45:47;7.43;;;3.13;;
54247;SDS011;40161;39.768;2.722;2022-12-18T03:48:37;5.60;;;2.45;;
54247;SDS011;40161;39.768;2.722;2022-12-18T03:51:08;6.35;;;3.05;;
54247;SDS011;40161;39.768;2.722;2022-12-18T03:56:11;4.73;;;2.00;;
54247;SDS011;40161;39.768;2.722;2022-12-18T03:58:40;3.90;;;1.77;;
54247;SDS011;40161;39.768;2.722;2022-12-18T04:01:08;5.65;;;2.40;;
54247;SDS011;40161;39.768;2.722;2022-12-18T04:03:38;6.68;;;2.90;;
54247;SDS011;40161;39.768;2.722;2022-12-18T04:06:05;4.63;;;2.45;;
54247;SDS011;40161;39.768;2.722;2022-12-18T04:08:32;6.10;;;2.72;;
54247;SDS011;40161;39.768;2.722;2022-12-18T04:11:00;4.80;;;1.80;;
54247;SDS011;40161;39.768;2.722;2022-12-18T04:13:32;3.75;;;1.60;;
54247;SDS011;40161;39.768;2.722;2022-12-18T04:16:00;4.72;;;1.70;;
54247;SDS011;40161;39.768;2.722;2022-12-18T04:18:26;4.35;;;1.60;;
54247;SDS011;40161;39.768;2.722;2022-12-18T04:20:52;2.92;;;1.20;;
54247;SDS011;40161;39.768;2.722;2022-12-18T04:23:17;2.72;;;1.40;;
54247;SDS011;40161;39.768;2.722;2022-12-18T04:25:43;2.95;;;1.15;;
54247;SDS011;40161;39.768;2.722;2022-12-18T04:28:09;3.25;;;1.50;;
54247;SDS011;40161;39.768;2.722;2022-12-18T04:30:34;3.75;;;1.60;;
54247;SDS011;40161;39.768;2.722;2022-12-18T04:33:00;6.47;;;2.13;;
54247;SDS011;40161;39.768;2.722;2022-12-18T04:35:25;3.47;;;1.65;;
54247;SDS011;40161;39.768;2.722;2022-12-18T04:37:51;1.98;;;1.10;;
54247;SDS011;40161;39.768;2.722;2022-12-18T04:40:16;4.03;;;1.42;;
54247;SDS011;40161;39.768;2.722;2022-12-18T04:42:42;3.53;;;1.40;;
54247;SDS011;40161;39.768;2.722;2022-12-18T04:45:08;4.60;;;1.50;;
54247;SDS011;40161;39.768;2.722;2022-12-18T04:47:33;3.63;;;1.63;;
54247;SDS011;40161;39.768;2.722;2022-12-18T04:49:59;2.47;;;1.27;;
54247;SDS011;40161;39.768;2.722;2022-12-18T04:52:24;2.67;;;1.00;;
54247;SDS011;40161;39.768;2.722;2022-12-18T04:54:50;6.60;;;2.50;;
54247;SDS011;40161;39.768;2.722;2022-12-18T04:57:16;4.78;;;1.58;;
54247;SDS011;40161;39.768;2.722;2022-12-18T04:59:43;4.85;;;1.70;;
54247;SDS011;40161;39.768;2.722;2022-12-18T05:02:09;3.83;;;1.88;;
54247;SDS011;40161;39.768;2.722;2022-12-18T05:04:34;6.45;;;2.10;;
54247;SDS011;40161;39.768;2.722;2022-12-18T05:07:00;4.55;;;2.08;;
54247;SDS011;40161;39.768;2.722;2022-12-18T05:09:25;5.32;;;2.22;;
54247;SDS011;40161;39.768;2.722;2022-12-18T05:11:51;4.57;;;1.70;;
54247;SDS011;40161;39.768;2.722;2022-12-18T05:14:16;4.30;;;1.60;;
54247;SDS011;40161;39.768;2.722;2022-12-18T05:16:42;2.63;;;1.40;;
54247;SDS011;40161;39.768;2.722;2022-12-18T05:19:07;3.55;;;1.33;;
54247;SDS011;40161;39.768;2.722;2022-12-18T05:21:33;5.18;;;1.50;;
54247;SDS011;40161;39.768;2.722;2022-12-18T05:23:59;4.25;;;1.70;;
54247;SDS011;40161;39.768;2.722;2022-12-18T05:26:24;2.45;;;1.20;;
54247;SDS011;40161;39.768;2.722;2022-12-18T05:28:50;2.72;;;1.00;;
54247;SDS011;40161;39.768;2.722;2022-12-18T05:31:15;2.38;;;1.20;;
54247;SDS011;40161;39.768;2.722;2022-12-18T05:33:41;2.85;;;1.05;;
54247;SDS011;40161;39.768;2.722;2022-12-18T05:36:07;2.90;;;1.10;;
54247;SDS011;40161;39.768;2.722;2022-12-18T05:38:35;3.50;;;1.13;;
54247;SDS011;40161;39.768;2.722;2022-12-18T05:41:02;2.00;;;0.90;;
54247;SDS011;40161;39.768;2.722;2022-12-18T05:43:28;5.18;;;1.10;;
54247;SDS011;40161;39.768;2.722;2022-12-18T05:45:54;2.90;;;1.10;;
54247;SDS011;40161;39.768;2.722;2022-12-18T05:48:21;3.00;;;1.10;;
54247;SDS011;40161;39.768;2.722;2022-12-18T05:50:47;2.97;;;1.30;;
54247;SDS011;40161;39.768;2.722;2022-12-18T05:53:15;1.52;;;0.95;;
54247;SDS011;40161;39.768;2.722;2022-12-18T05:55:43;1.95;;;1.20;;
54247;SDS011;40161;39.768;2.722;2022-12-18T05:58:09;3.78;;;1.40;;
54247;SDS011;40161;39.768;2.722;2022-12-18T06:00:37;3.00;;;1.27;;
54247;SDS011;40161;39.768;2.722;2022-12-18T06:03:09;1.88;;;1.02;;
54247;SDS011;40161;39.768;2.722;2022-12-18T06:05:36;3.38;;;1.30;;
54247;SDS011;40161;39.768;2.722;2022-12-18T06:08:03;3.13;;;1.45;;
54247;SDS011;40161;39.768;2.722;2022-12-18T06:10:29;4.65;;;1.10;;
54247;SDS011;40161;39.768;2.722;2022-12-18T06:12:55;4.05;;;1.80;;
54247;SDS011;40161;39.768;2.722;2022-12-18T06:15:20;2.70;;;1.20;;
54247;SDS011;40161;39.768;2.722;2022-12-18T06:17:46;4.18;;;1.60;;
54247;SDS011;40161;39.768;2.722;2022-12-18T06:20:11;2.60;;;1.27;;
54247;SDS011;40161;39.768;2.722;2022-12-18T06:22:37;4.03;;;1.70;;
54247;SDS011;40161;39.768;2.722;2022-12-18T06:25:03;4.65;;;1.45;;
54247;SDS011;40161;39.768;2.722;2022-12-18T06:27:29;3.25;;;1.20;;
54247;SDS011;40161;39.768;2.722;2022-12-18T06:29:54;3.45;;;1.30;;
54247;SDS011;40161;39.768;2.722;2022-12-18T06:32:20;2.80;;;1.20;;
54247;SDS011;40161;39.768;2.722;2022-12-18T06:34:45;3.65;;;1.52;;
54247;SDS011;40161;39.768;2.722;2022-12-18T06:37:11;3.08;;;1.52;;
54247;SDS011;40161;39.768;2.722;2022-12-18T06:39:36;2.83;;;1.60;;
54247;SDS011;40161;39.768;2.722;2022-12-18T06:42:02;3.08;;;1.77;;
54247;SDS011;40161;39.768;2.722;2022-12-18T06:44:28;5.30;;;1.90;;
54247;SDS011;40161;39.768;2.722;2022-12-18T06:46:54;4.28;;;1.70;;
54247;SDS011;40161;39.768;2.722;2022-12-18T06:49:19;3.92;;;1.75;;
54247;SDS011;40161;39.768;2.722;2022-12-18T06:51:45;4.38;;;1.70;;
54247;SDS011;40161;39.768;2.722;2022-12-18T06:54:11;4.47;;;2.30;;
54247;SDS011;40161;39.768;2.722;2022-12-18T06:56:36;6.40;;;2.45;;
54247;SDS011;40161;39.768;2.722;2022-12-18T06:59:02;3.10;;;1.90;;
54247;SDS011;40161;39.768;2.722;2022-12-18T07:01:27;3.80;;;1.70;;
54247;SDS011;40161;39.768;2.722;2022-12-18T07:03:53;4.90;;;1.48;;
54247;SDS011;40161;39.768;2.722;2022-12-18T07:06:20;4.18;;;1.40;;
54247;SDS011;40161;39.768;2.722;2022-12-18T07:08:48;3.35;;;1.38;;
54247;SDS011;40161;39.768;2.722;2022-12-18T07:11:14;3.78;;;1.50;;
54247;SDS011;40161;39.768;2.722;2022-12-18T07:13:41;5.75;;;2.45;;
54247;SDS011;40161;39.768;2.722;2022-12-18T07:16:09;5.72;;;2.15;;
54247;SDS011;40161;39.768;2.722;2022-12-18T07:18:36;6.80;;;2.45;;
54247;SDS011;40161;39.768;2.722;2022-12-18T07:21:03;5.97;;;2.47;;
54247;SDS011;40161;39.768;2.722;2022-12-18T07:23:33;6.50;;;2.78;;
54247;SDS011;40161;39.768;2.722;2022-12-18T07:26:06;5.93;;;2.60;;
54247;SDS011;40161;39.768;2.722;2022-12-18T07:28:34;6.28;;;2.85;;
54247;SDS011;40161;39.768;2.722;2022-12-18T07:31:03;8.13;;;3.63;;
54247;SDS011;40161;39.768;2.722;2022-12-18T07:33:31;6.00;;;2.80;;
54247;SDS011;40161;39.768;2.722;2022-12-18T07:36:04;6.20;;;3.00;;
54247;SDS011;40161;39.768;2.722;2022-12-18T07:38:31;7.45;;;3.45;;
54247;SDS011;40161;39.768;2.722;2022-12-18T07:41:01;9.02;;;5.38;;
54247;SDS011;40161;39.768;2.722;2022-12-18T07:43:31;11.20;;;5.25;;
54247;SDS011;40161;39.768;2.722;2022-12-18T07:45:57;7.35;;;3.53;;
54247;SDS011;40161;39.768;2.722;2022-12-18T07:48:23;10.07;;;3.63;;
54247;SDS011;40161;39.768;2.722;2022-12-18T07:50:48;6.78;;;4.07;;
54247;SDS011;40161;39.768;2.722;2022-12-18T07:53:14;9.15;;;4.50;;
54247;SDS011;40161;39.768;2.722;2022-12-18T07:55:40;10.15;;;4.60;;
54247;SDS011;40161;39.768;2.722;2022-12-18T07:58:06;11.52;;;5.25;;
54247;SDS011;40161;39.768;2.722;2022-12-18T08:00:33;12.43;;;7.22;;
54247;SDS011;40161;39.768;2.722;2022-12-18T08:02:59;20.02;;;11.35;;
54247;SDS011;40161;39.768;2.722;2022-12-18T08:05:24;37.08;;;21.50;;
54247;SDS011;40161;39.768;2.722;2022-12-18T08:07:50;34.13;;;20.70;;
54247;SDS011;40161;39.768;2.722;2022-12-18T08:10:16;31.35;;;17.02;;
54247;SDS011;40161;39.768;2.722;2022-12-18T08:12:42;27.23;;;15.88;;
54247;SDS011;40161;39.768;2.722;2022-12-18T08:15:07;28.63;;;15.77;;
54247;SDS011;40161;39.768;2.722;2022-12-18T08:17:33;24.70;;;15.63;;
54247;SDS011;40161;39.768;2.722;2022-12-18T08:19:59;22.42;;;14.10;;
54247;SDS011;40161;39.768;2.722;2022-12-18T08:22:24;22.10;;;14.20;;
54247;SDS011;40161;39.768;2.722;2022-12-18T08:24:50;18.52;;;12.43;;
54247;SDS011;40161;39.768;2.722;2022-12-18T08:27:15;16.35;;;11.52;;
54247;SDS011;40161;39.768;2.722;2022-12-18T08:29:41;14.52;;;9.65;;
54247;SDS011;40161;39.768;2.722;2022-12-18T08:32:07;16.13;;;11.57;;
54247;SDS011;40161;39.768;2.722;2022-12-18T08:34:32;20.25;;;13.23;;
54247;SDS011;40161;39.768;2.722;2022-12-18T08:36:58;18.40;;;12.98;;
54247;SDS011;40161;39.768;2.722;2022-12-18T08:39:23;17.15;;;11.57;;
54247;SDS011;40161;39.768;2.722;2022-12-18T08:41:49;17.17;;;11.30;;
54247;SDS011;40161;39.768;2.722;2022-12-18T08:44:33;16.13;;;10.27;;
54247;SDS011;40161;39.768;2.722;2022-12-18T08:47:07;14.15;;;9.65;;
54247;SDS011;40161;39.768;2.722;2022-12-18T08:49:33;13.32;;;9.63;;
54247;SDS011;40161;39.768;2.722;2022-12-18T08:52:00;15.95;;;9.77;;
54247;SDS011;40161;39.768;2.722;2022-12-18T08:54:26;12.82;;;9.32;;
54247;SDS011;40161;39.768;2.722;2022-12-18T08:56:52;13.77;;;8.85;;
54247;SDS011;40161;39.768;2.722;2022-12-18T08:59:18;15.30;;;9.88;;
54247;SDS011;40161;39.768;2.722;2022-12-18T09:01:44;13.00;;;8.55;;
54247;SDS011;40161;39.768;2.722;2022-12-18T09:04:10;15.32;;;9.02;;
54247;SDS011;40161;39.768;2.722;2022-12-18T09:06:35;14.95;;;9.93;;
54247;SDS011;40161;39.768;2.722;2022-12-18T09:09:02;17.85;;;10.20;;
54247;SDS011;40161;39.768;2.722;2022-12-18T09:11:29;14.95;;;9.93;;
54247;SDS011;40161;39.768;2.722;2022-12-18T09:13:55;13.20;;;9.25;;
54247;SDS011;40161;39.768;2.722;2022-12-18T09:16:21;12.50;;;9.30;;
54247;SDS011;40161;39.768;2.722;2022-12-18T09:18:48;13.73;;;8.90;;
54247;SDS011;40161;39.768;2.722;2022-12-18T09:21:15;17.10;;;11.30;;
54247;SDS011;40161;39.768;2.722;2022-12-18T09:23:43;16.63;;;10.55;;
54247;SDS011;40161;39.768;2.722;2022-12-18T09:26:13;18.65;;;11.55;;
54247;SDS011;40161;39.768;2.722;2022-12-18T09:28:39;17.23;;;11.50;;
54247;SDS011;40161;39.768;2.722;2022-12-18T09:31:05;15.25;;;11.65;;
54247;SDS011;40161;39.768;2.722;2022-12-18T09:33:34;17.60;;;12.05;;
54247;SDS011;40161;39.768;2.722;2022-12-18T09:36:01;25.50;;;15.13;;
54247;SDS011;40161;39.768;2.722;2022-12-18T09:38:32;19.38;;;13.18;;
54247;SDS011;40161;39.768;2.722;2022-12-18T09:41:05;22.95;;;14.18;;
54247;SDS011;40161;39.768;2.722;2022-12-18T09:43:45;22.55;;;15.48;;
54247;SDS011;40161;39.768;2.722;2022-12-18T09:46:19;24.92;;;17.02;;
54247;SDS011;40161;39.768;2.722;2022-12-18T09:48:51;28.80;;;19.40;;
54247;SDS011;40161;39.768;2.722;2022-12-18T09:51:21;19.83;;;13.38;;
54247;SDS011;40161;39.768;2.722;2022-12-18T09:53:55;14.98;;;11.20;;
54247;SDS011;40161;39.768;2.722;2022-12-18T09:56:25;16.48;;;12.27;;
54247;SDS011;40161;39.768;2.722;2022-12-18T09:59:03;17.27;;;13.13;;
54247;SDS011;40161;39.768;2.722;2022-12-18T10:01:29;13.13;;;9.65;;
54247;SDS011;40161;39.768;2.722;2022-12-18T10:03:56;12.52;;;9.13;;
54247;SDS011;40161;39.768;2.722;2022-12-18T10:06:44;9.05;;;6.80;;
54247;SDS011;40161;39.768;2.722;2022-12-18T10:09:27;11.18;;;6.95;;
54247;SDS011;40161;39.768;2.722;2022-12-18T10:15:06;10.02;;;6.05;;
54247;SDS011;40161;39.768;2.722;2022-12-18T10:17:45;9.75;;;5.88;;
54247;SDS011;40161;39.768;2.722;2022-12-18T10:25:28;6.95;;;3.50;;
54247;SDS011;40161;39.768;2.722;2022-12-18T10:28:00;4.93;;;2.53;;
54247;SDS011;40161;39.768;2.722;2022-12-18T10:30:35;4.80;;;1.90;;
54247;SDS011;40161;39.768;2.722;2022-12-18T10:33:04;5.00;;;2.33;;
54247;SDS011;40161;39.768;2.722;2022-12-18T10:35:31;4.35;;;1.90;;
54247;SDS011;40161;39.768;2.722;2022-12-18T10:40:57;5.13;;;2.42;;
54247;SDS011;40161;39.768;2.722;2022-12-18T10:48:27;13.48;;;8.90;;
54247;SDS011;40161;39.768;2.722;2022-12-18T10:50:54;8.45;;;5.75;;
54247;SDS011;40161;39.768;2.722;2022-12-18T10:53:27;8.30;;;4.25;;
54247;SDS011;40161;39.768;2.722;2022-12-18T10:55:54;5.25;;;3.15;;
54247;SDS011;40161;39.768;2.722;2022-12-18T10:58:27;9.50;;;5.38;;
54247;SDS011;40161;39.768;2.722;2022-12-18T11:01:12;6.45;;;3.53;;
54247;SDS011;40161;39.768;2.722;2022-12-18T11:03:46;7.30;;;3.55;;
54247;SDS011;40161;39.768;2.722;2022-12-18T11:06:32;7.13;;;3.63;;
54247;SDS011;40161;39.768;2.722;2022-12-18T11:08:59;5.80;;;2.83;;
54247;SDS011;40161;39.768;2.722;2022-12-18T11:11:26;4.93;;;2.38;;
54247;SDS011;40161;39.768;2.722;2022-12-18T11:13:58;6.78;;;2.67;;
54247;SDS011;40161;39.768;2.722;2022-12-18T11:16:27;5.63;;;3.13;;
54247;SDS011;40161;39.768;2.722;2022-12-18T11:18:59;7.80;;;4.68;;
54247;SDS011;40161;39.768;2.722;2022-12-18T11:21:55;8.23;;;4.30;;
54247;SDS011;40161;39.768;2.722;2022-12-18T11:27:00;7.82;;;3.40;;
54247;SDS011;40161;39.768;2.722;2022-12-18T11:29:31;8.20;;;3.47;;
54247;SDS011;40161;39.768;2.722;2022-12-18T11:34:40;7.68;;;3.85;;
54247;SDS011;40161;39.768;2.722;2022-12-18T11:37:10;8.38;;;4.53;;
54247;SDS011;40161;39.768;2.722;2022-12-18T11:39:41;10.25;;;5.40;;
54247;SDS011;40161;39.768;2.722;2022-12-18T11:44:50;8.50;;;4.63;;
54247;SDS011;40161;39.768;2.722;2022-12-18T11:49:50;5.63;;;3.03;;
54247;SDS011;40161;39.768;2.722;2022-12-18T11:54:50;7.05;;;4.15;;
54247;SDS011;40161;39.768;2.722;2022-12-18T12:13:13;6.35;;;3.30;;
54247;SDS011;40161;39.768;2.722;2022-12-18T12:15:53;8.98;;;4.63;;
54247;SDS011;40161;39.768;2.722;2022-12-18T12:23:45;7.30;;;4.10;;
54247;SDS011;40161;39.768;2.722;2022-12-18T12:26:44;7.50;;;4.15;;
54247;SDS011;40161;39.768;2.722;2022-12-18T12:32:03;10.30;;;4.55;;
54247;SDS011;40161;39.768;2.722;2022-12-18T12:37:45;6.78;;;3.63;;
54247;SDS011;40161;39.768;2.722;2022-12-18T12:40:18;7.38;;;3.80;;
54247;SDS011;40161;39.768;2.722;2022-12-18T12:42:46;8.77;;;4.68;;
54247;SDS011;40161;39.768;2.722;2022-12-18T12:45:36;6.88;;;4.22;;
54247;SDS011;40161;39.768;2.722;2022-12-18T12:48:13;8.00;;;4.00;;
54247;SDS011;40161;39.768;2.722;2022-12-18T12:51:00;7.55;;;4.15;;
54247;SDS011;40161;39.768;2.722;2022-12-18T12:53:34;6.72;;;3.90;;
54247;SDS011;40161;39.768;2.722;2022-12-18T12:56:03;7.70;;;3.88;;
54247;SDS011;40161;39.768;2.722;2022-12-18T13:01:54;6.85;;;3.45;;
54247;SDS011;40161;39.768;2.722;2022-12-18T13:07:23;5.57;;;3.00;;
54247;SDS011;40161;39.768;2.722;2022-12-18T13:18:28;7.53;;;3.95;;
54247;SDS011;40161;39.768;2.722;2022-12-18T13:25:52;8.23;;;3.08;;
54247;SDS011;40161;39.768;2.722;2022-12-18T13:30:56;7.82;;;3.90;;
54247;SDS011;40161;39.768;2.722;2022-12-18T13:38:23;9.07;;;4.88;;
54247;SDS011;40161;39.768;2.722;2022-12-18T13:40:59;9.50;;;4.32;;
54247;SDS011;40161;39.768;2.722;2022-12-18T13:43:27;10.63;;;4.93;;
54247;SDS011;40161;39.768;2.722;2022-12-18T13:46:00;8.25;;;4.60;;
54247;SDS011;40161;39.768;2.722;2022-12-18T13:48:32;7.18;;;3.67;;
54247;SDS011;40161;39.768;2.722;2022-12-18T13:51:05;6.40;;;2.65;;
54247;SDS011;40161;39.768;2.722;2022-12-18T13:53:35;6.55;;;3.10;;
54247;SDS011;40161;39.768;2.722;2022-12-18T13:56:08;8.80;;;4.15;;
54247;SDS011;40161;39.768;2.722;2022-12-18T13:58:33;9.18;;;4.88;;
54247;SDS011;40161;39.768;2.722;2022-12-18T14:00:59;7.72;;;4.15;;
54247;SDS011;40161;39.768;2.722;2022-12-18T14:03:27;5.78;;;2.38;;
54247;SDS011;40161;39.768;2.722;2022-12-18T14:05:59;6.53;;;2.05;;
54247;SDS011;40161;39.768;2.722;2022-12-18T14:08:38;4.95;;;2.53;;
54247;SDS011;40161;39.768;2.722;2022-12-18T14:11:05;5.35;;;2.22;;
54247;SDS011;40161;39.768;2.722;2022-12-18T14:13:36;6.50;;;2.30;;
54247;SDS011;40161;39.768;2.722;2022-12-18T14:16:06;5.28;;;1.75;;
54247;SDS011;40161;39.768;2.722;2022-12-18T14:21:18;5.22;;;2.03;;
54247;SDS011;40161;39.768;2.722;2022-12-18T14:26:41;6.47;;;3.05;;
54247;SDS011;40161;39.768;2.722;2022-12-18T14:32:12;4.75;;;2.05;;
54247;SDS011;40161;39.768;2.722;2022-12-18T14:34:42;7.35;;;4.07;;
54247;SDS011;40161;39.768;2.722;2022-12-18T14:37:15;6.60;;;2.83;;
54247;SDS011;40161;39.768;2.722;2022-12-18T14:39:54;4.25;;;1.90;;
54247;SDS011;40161;39.768;2.722;2022-12-18T14:42:21;5.72;;;2.10;;
54247;SDS011;40161;39.768;2.722;2022-12-18T14:44:47;4.57;;;2.03;;
54247;SDS011;40161;39.768;2.722;2022-12-18T14:47:15;5.40;;;2.20;;
54247;SDS011;40161;39.768;2.722;2022-12-18T14:49:42;4.32;;;2.05;;
54247;SDS011;40161;39.768;2.722;2022-12-18T14:52:18;19.63;;;12.38;;
54247;SDS011;40161;39.768;2.722;2022-12-18T14:54:51;35.95;;;24.52;;
54247;SDS011;40161;39.768;2.722;2022-12-18T14:57:21;29.48;;;20.65;;
54247;SDS011;40161;39.768;2.722;2022-12-18T14:59:48;18.48;;;10.95;;
54247;SDS011;40161;39.768;2.722;2022-12-18T15:02:24;12.68;;;7.80;;
54247;SDS011;40161;39.768;2.722;2022-12-18T15:05:02;12.25;;;6.20;;
54247;SDS011;40161;39.768;2.722;2022-12-18T15:07:50;8.15;;;5.13;;
54247;SDS011;40161;39.768;2.722;2022-12-18T15:10:21;9.32;;;6.00;;
54247;SDS011;40161;39.768;2.722;2022-12-18T15:17:58;10.18;;;5.97;;
54247;SDS011;40161;39.768;2.722;2022-12-18T15:20:25;8.70;;;5.28;;
54247;SDS011;40161;39.768;2.722;2022-12-18T15:22:50;7.50;;;4.30;;
54247;SDS011;40161;39.768;2.722;2022-12-18T15:25:25;8.15;;;4.85;;
54247;SDS011;40161;39.768;2.722;2022-12-18T15:27:59;10.57;;;6.00;;
54247;SDS011;40161;39.768;2.722;2022-12-18T15:30:25;10.15;;;5.78;;
54247;SDS011;40161;39.768;2.722;2022-12-18T15:32:51;10.15;;;5.22;;
54247;SDS011;40161;39.768;2.722;2022-12-18T15:35:37;9.20;;;4.45;;
54247;SDS011;40161;39.768;2.722;2022-12-18T15:38:03;8.80;;;4.93;;
54247;SDS011;40161;39.768;2.722;2022-12-18T15:40:28;10.95;;;5.60;;
54247;SDS011;40161;39.768;2.722;2022-12-18T15:42:54;8.48;;;5.47;;
54247;SDS011;40161;39.768;2.722;2022-12-18T15:45:39;10.30;;;5.70;;
54247;SDS011;40161;39.768;2.722;2022-12-18T15:48:11;9.70;;;5.55;;
54247;SDS011;40161;39.768;2.722;2022-12-18T15:50:45;6.85;;;3.80;;
54247;SDS011;40161;39.768;2.722;2022-12-18T15:53:10;9.63;;;3.80;;
54247;SDS011;40161;39.768;2.722;2022-12-18T15:55:36;8.05;;;4.22;;
54247;SDS011;40161;39.768;2.722;2022-12-18T15:58:21;7.00;;;3.90;;
54247;SDS011;40161;39.768;2.722;2022-12-18T16:00:46;8.13;;;5.10;;
54247;SDS011;40161;39.768;2.722;2022-12-18T16:03:12;8.93;;;5.70;;
54247;SDS011;40161;39.768;2.722;2022-12-18T16:05:38;11.88;;;9.02;;
54247;SDS011;40161;39.768;2.722;2022-12-18T16:08:03;7.80;;;5.80;;
54247;SDS011;40161;39.768;2.722;2022-12-18T16:10:29;8.95;;;5.80;;
54247;SDS011;40161;39.768;2.722;2022-12-18T16:12:55;11.50;;;7.28;;
54247;SDS011;40161;39.768;2.722;2022-12-18T16:15:20;10.73;;;6.80;;
54247;SDS011;40161;39.768;2.722;2022-12-18T16:17:46;9.63;;;5.90;;
54247;SDS011;40161;39.768;2.722;2022-12-18T16:20:14;10.90;;;6.57;;
54247;SDS011;40161;39.768;2.722;2022-12-18T16:22:41;10.73;;;7.38;;
54247;SDS011;40161;39.768;2.722;2022-12-18T16:25:21;12.25;;;7.32;;
54247;SDS011;40161;39.768;2.722;2022-12-18T16:27:49;12.60;;;8.60;;
54247;SDS011;40161;39.768;2.722;2022-12-18T16:30:20;13.20;;;9.60;;
54247;SDS011;40161;39.768;2.722;2022-12-18T16:32:48;12.57;;;9.55;;
54247;SDS011;40161;39.768;2.722;2022-12-18T16:35:15;13.38;;;8.40;;
54247;SDS011;40161;39.768;2.722;2022-12-18T16:37:41;13.07;;;7.95;;
54247;SDS011;40161;39.768;2.722;2022-12-18T16:40:09;18.65;;;12.40;;
54247;SDS011;40161;39.768;2.722;2022-12-18T16:42:37;19.20;;;13.20;;
54247;SDS011;40161;39.768;2.722;2022-12-18T16:45:04;18.98;;;13.23;;
54247;SDS011;40161;39.768;2.722;2022-12-18T16:47:31;15.50;;;10.40;;
54247;SDS011;40161;39.768;2.722;2022-12-18T16:49:57;19.73;;;11.60;;
54247;SDS011;40161;39.768;2.722;2022-12-18T16:52:23;23.25;;;14.05;;
54247;SDS011;40161;39.768;2.722;2022-12-18T16:54:49;22.63;;;13.43;;
54247;SDS011;40161;39.768;2.722;2022-12-18T16:57:15;27.15;;;15.70;;